Time;durP1;ratioP1;P1;durP2;ratioP2;P2;SDS_P1;SDS_P2;PMS_P1;PMS_P2;Temp;Humidity;BMP_temperature;BMP_pressure;BME280_temperature;BME280_humidity;BME280_pressure;Samples;Min_cycle;Max_cycle;Signal;HPM_P1;HPM_P2
2024/02/07 00:02:21;;;;;;;6.30;3.50;;;;;;;11.57;33.27;94923.94;5046515;28;20115;-77
2024/02/07 00:04:47;;;;;;;5.82;3.67;;;;;;;11.58;33.29;94928.25;5046479;28;20087;-77
2024/02/07 00:07:12;;;;;;;5.95;3.20;;;;;;;11.62;33.27;94918.66;5046501;28;20017;-78
2024/02/07 00:09:37;;;;;;;5.03;3.45;;;;;;;11.63;33.45;94922.19;5046342;28;20466;-78
2024/02/07 00:12:03;;;;;;;6.25;3.85;;;;;;;11.60;33.53;94912.06;5046192;28;20424;-78
2024/02/07 00:14:29;;;;;;;7.95;5.00;;;;;;;11.54;33.73;94922.09;5047797;28;20017;-78
2024/02/07 00:16:56;;;;;;;6.13;3.30;;;;;;;11.52;33.66;94917.00;5029062;28;20029;-79
2024/02/07 00:19:22;;;;;;;5.43;3.58;;;;;;;11.52;33.97;94921.75;5047844;28;20450;-78
2024/02/07 00:21:47;;;;;;;4.47;3.08;;;;;;;11.48;34.06;94915.63;5046108;28;20025;-78
2024/02/07 00:24:13;;;;;;;7.95;4.20;;;;;;;11.43;34.18;94923.22;5046037;28;20120;-78
2024/02/07 00:26:38;;;;;;;6.90;3.58;;;;;;;11.43;34.17;94917.72;5046110;28;20021;-77
2024/02/07 00:29:04;;;;;;;7.65;3.83;;;;;;;11.45;34.17;94922.75;5045847;28;20113;-78
2024/02/07 00:31:29;;;;;;;5.55;3.15;;;;;;;11.43;34.22;94920.47;5047324;28;20055;-77
2024/02/07 00:33:54;;;;;;;5.50;3.75;;;;;;;11.43;34.13;94909.44;5047301;28;20021;-77
2024/02/07 00:36:20;;;;;;;7.47;3.70;;;;;;;11.50;33.86;94908.44;5047815;28;20044;-77
2024/02/07 00:38:45;;;;;;;7.18;3.60;;;;;;;11.40;34.13;94910.31;5045674;28;20021;-76
2024/02/07 00:41:24;;;;;;;5.10;3.45;;;;;;;11.46;33.89;94915.28;5029149;28;20025;-77
2024/02/07 00:43:50;;;;;;;7.05;3.55;;;;;;;11.43;34.01;94906.69;5045268;28;20064;-77
2024/02/07 00:46:16;;;;;;;6.65;3.30;;;;;;;11.38;34.27;94906.47;5029299;28;20017;-78
2024/02/07 00:48:42;;;;;;;5.25;3.67;;;;;;;11.28;34.39;94902.09;5046988;28;20032;-78
2024/02/07 00:51:08;;;;;;;6.93;3.67;;;;;;;11.40;34.58;94907.56;5045247;28;20056;-78
2024/02/07 00:53:33;;;;;;;6.15;3.70;;;;;;;11.31;34.86;94901.97;5047253;28;20547;-78
2024/02/07 00:55:59;;;;;;;5.82;3.40;;;;;;;11.30;34.96;94897.69;5045133;28;20078;-77
2024/02/07 00:58:24;;;;;;;5.25;3.38;;;;;;;11.39;35.00;94894.25;5047237;28;20074;-77
2024/02/07 01:00:50;;;;;;;6.28;3.35;;;;;;;11.32;35.48;94887.00;5028750;28;20021;-77
2024/02/07 01:03:15;;;;;;;5.85;3.38;;;;;;;11.31;35.55;94885.47;5045166;28;20427;-78
2024/02/07 01:05:41;;;;;;;4.88;3.35;;;;;;;11.24;35.56;94885.72;5044607;28;20063;-78
2024/02/07 01:08:06;;;;;;;5.53;3.20;;;;;;;11.34;35.33;94890.06;5046509;28;20037;-78
2024/02/07 01:10:32;;;;;;;5.63;3.28;;;;;;;11.28;35.47;94888.31;5045204;28;20086;-78
2024/02/07 01:12:57;;;;;;;6.70;3.60;;;;;;;11.24;35.51;94891.22;5044711;28;20017;-75
2024/02/07 01:15:23;;;;;;;6.15;3.30;;;;;;;11.21;35.21;94891.31;5045348;28;20021;-78
2024/02/07 01:17:48;;;;;;;9.07;3.92;;;;;;;11.15;34.69;94882.84;5028421;28;20021;-78
2024/02/07 01:20:13;;;;;;;6.90;3.58;;;;;;;11.12;34.79;94895.47;5046419;28;20087;-78
2024/02/07 01:22:39;;;;;;;8.25;3.78;;;;;;;11.01;34.66;94886.81;5045047;28;20384;-78
2024/02/07 01:25:08;;;;;;;7.22;3.55;;;;;;;10.90;34.43;94873.41;5046278;28;20407;-77
2024/02/07 01:27:34;;;;;;;7.82;3.85;;;;;;;10.95;34.38;94874.81;5046338;28;20085;-77
2024/02/07 01:29:59;;;;;;;7.38;3.35;;;;;;;10.89;34.32;94871.84;5044595;28;20086;-77
2024/02/07 01:32:25;;;;;;;7.40;4.03;;;;;;;10.90;34.06;94865.16;5046244;28;20033;-76
2024/02/07 01:34:50;;;;;;;8.88;3.63;;;;;;;10.86;34.33;94869.22;5045802;28;20018;-77
2024/02/07 01:37:15;;;;;;;7.90;4.10;;;;;;;10.75;34.40;94861.28;5028130;28;20368;-76
2024/02/07 01:39:41;;;;;;;7.65;3.97;;;;;;;10.83;34.43;94857.09;5044749;28;20029;-77
2024/02/07 01:42:06;;;;;;;6.75;3.92;;;;;;;10.74;34.75;94864.50;5045885;28;20025;-76
2024/02/07 01:44:32;;;;;;;7.32;3.90;;;;;;;10.67;34.92;94848.19;5027549;28;20025;-77
2024/02/07 01:47:13;;;;;;;7.03;3.97;;;;;;;10.64;34.88;94850.63;5044319;28;20036;-77
2024/02/07 01:49:48;;;;;;;7.82;3.33;;;;;;;10.58;35.26;94852.38;5030092;28;20057;-78
2024/02/07 01:52:15;;;;;;;6.18;4.15;;;;;;;10.43;35.46;94840.25;5043960;28;20123;-78
2024/02/07 01:54:41;;;;;;;9.02;3.83;;;;;;;10.32;35.75;94850.78;5044559;28;20655;-77
2024/02/07 01:57:07;;;;;;;8.07;4.40;;;;;;;10.26;35.97;94847.03;5044033;28;20028;-77
2024/02/07 01:59:33;;;;;;;6.45;3.58;;;;;;;10.13;36.09;94843.47;5044521;28;20483;-77
2024/02/07 02:01:58;;;;;;;7.40;3.60;;;;;;;10.05;36.50;94838.19;5044043;28;20116;-78
2024/02/07 02:04:24;;;;;;;8.00;4.25;;;;;;;9.99;36.43;94842.69;5044271;28;20375;-78
2024/02/07 02:06:50;;;;;;;7.05;4.00;;;;;;;9.89;36.75;94849.22;5044446;28;20094;-78
2024/02/07 02:09:16;;;;;;;6.13;4.20;;;;;;;9.76;37.22;94848.44;5044972;28;20059;-78
2024/02/07 02:11:42;;;;;;;6.00;3.88;;;;;;;9.76;37.32;94860.19;5044473;28;20456;-77
2024/02/07 02:14:08;;;;;;;9.88;3.65;;;;;;;9.69;37.19;94851.34;5043844;28;20029;-78
2024/02/07 02:16:35;;;;;;;8.70;3.92;;;;;;;9.54;37.63;94838.00;5045407;28;20021;-79
2024/02/07 02:19:01;;;;;;;8.15;4.38;;;;;;;9.50;37.81;94842.81;5043968;28;20086;-78
2024/02/07 02:21:29;;;;;;;6.60;3.72;;;;;;;9.43;38.16;94853.97;5045475;28;20486;-78
2024/02/07 02:24:11;;;;;;;8.00;4.55;;;;;;;9.44;38.20;94855.50;5043776;28;20017;-78
2024/02/07 02:26:57;;;;;;;8.93;4.80;;;;;;;9.30;38.35;94844.91;5043720;28;20037;-78
2024/02/07 02:29:36;;;;;;;8.57;4.03;;;;;;;9.29;38.38;94843.38;5043963;28;20060;-77
2024/02/07 02:32:02;;;;;;;5.47;3.78;;;;;;;9.15;38.79;94849.97;5043797;28;20052;-78
2024/02/07 02:34:28;;;;;;;9.15;4.63;;;;;;;9.07;38.84;94848.63;5044048;28;20481;-77
2024/02/07 02:36:54;;;;;;;9.15;4.22;;;;;;;9.00;38.83;94854.25;5043972;28;20130;-77
2024/02/07 02:39:20;;;;;;;7.45;4.18;;;;;;;8.96;38.85;94850.84;5044165;28;20045;-78
2024/02/07 02:41:45;;;;;;;5.65;3.70;;;;;;;8.84;39.02;94846.06;5043925;28;20392;-78
2024/02/07 02:44:12;;;;;;;7.15;4.10;;;;;;;8.74;39.63;94847.84;5026512;28;20503;-78
2024/02/07 02:46:37;;;;;;;7.63;3.72;;;;;;;8.48;40.11;94847.59;5043944;28;20087;-78
2024/02/07 02:49:03;;;;;;;7.95;4.07;;;;;;;8.34;40.35;94838.91;5043316;28;20032;-78
2024/02/07 02:51:29;;;;;;;6.40;3.42;;;;;;;8.42;40.30;94859.50;5043854;28;20104;-78
2024/02/07 02:53:54;;;;;;;8.38;3.53;;;;;;;8.46;40.37;94851.97;5045121;28;20444;-78
2024/02/07 02:56:20;;;;;;;8.85;3.95;;;;;;;8.38;40.58;94847.88;5044824;28;20098;-76
2024/02/07 02:58:45;;;;;;;6.93;3.67;;;;;;;8.40;40.53;94850.94;5043795;28;20052;-79
2024/02/07 03:01:14;;;;;;;5.25;3.80;;;;;;;8.43;40.40;94847.34;5044698;28;20017;-79
2024/02/07 03:03:44;;;;;;;5.53;3.55;;;;;;;8.37;40.68;94851.78;5043625;28;20036;-78
2024/02/07 03:06:18;;;;;;;7.78;3.90;;;;;;;8.37;40.37;94847.09;5043498;28;20028;-78
2024/02/07 03:08:43;;;;;;;7.88;4.03;;;;;;;8.34;40.63;94847.13;5043883;28;20025;-78
2024/02/07 03:11:09;;;;;;;7.30;4.13;;;;;;;8.38;40.77;94859.59;5044615;28;20025;-78
2024/02/07 03:13:37;;;;;;;7.00;4.50;;;;;;;8.33;40.71;94859.28;5043510;28;20025;-77
2024/02/07 03:16:05;;;;;;;6.82;4.35;;;;;;;8.27;41.03;94853.53;5043737;28;20025;-78
2024/02/07 03:18:31;;;;;;;6.75;4.07;;;;;;;8.21;41.38;94852.50;5044741;28;20040;-78
2024/02/07 03:20:57;;;;;;;7.55;3.83;;;;;;;8.14;41.40;94847.16;5043558;28;20082;-77
2024/02/07 03:23:22;;;;;;;8.23;4.68;;;;;;;8.13;41.36;94849.13;5027165;28;20124;-78
2024/02/07 03:25:48;;;;;;;6.90;4.47;;;;;;;8.06;41.66;94843.03;5044882;28;20040;-78
2024/02/07 03:28:16;;;;;;;6.65;4.45;;;;;;;8.04;41.72;94848.16;5028617;28;20384;-79
2024/02/07 03:30:41;;;;;;;9.25;4.53;;;;;;;8.03;41.91;94843.84;5047084;28;20112;-78
2024/02/07 03:33:06;;;;;;;8.75;4.43;;;;;;;7.94;42.07;94845.19;5047177;28;20018;-77
2024/02/07 03:35:33;;;;;;;9.00;5.15;;;;;;;7.95;42.11;94846.75;5046847;28;20074;-78
2024/02/07 03:37:58;;;;;;;8.02;4.57;;;;;;;7.95;41.94;94837.75;5048350;28;20021;-77
2024/02/07 03:40:24;;;;;;;7.57;4.50;;;;;;;7.95;42.07;94832.28;5046949;28;20428;-77
2024/02/07 03:42:50;;;;;;;8.88;4.60;;;;;;;7.89;42.07;94833.97;5046884;28;20033;-77
2024/02/07 03:45:16;;;;;;;10.85;5.10;;;;;;;7.84;42.34;94834.47;5029992;28;20462;-78
2024/02/07 03:47:45;;;;;;;8.70;4.75;;;;;;;7.82;42.40;94840.38;5047054;28;20029;-77
2024/02/07 03:50:11;;;;;;;10.52;4.82;;;;;;;7.79;42.40;94826.75;5046210;28;20396;-77
2024/02/07 03:52:42;;;;;;;10.43;4.93;;;;;;;7.79;42.60;94837.69;5046299;28;20033;-77
2024/02/07 03:55:10;;;;;;;9.15;4.72;;;;;;;7.80;42.47;94841.97;5046726;28;20074;-78
2024/02/07 03:57:36;;;;;;;7.07;4.25;;;;;;;7.77;42.61;94835.38;5046593;28;20548;-78
2024/02/07 04:00:08;;;;;;;8.50;4.45;;;;;;;7.69;42.82;94834.00;5046335;28;20032;-78
2024/02/07 04:02:37;;;;;;;8.30;4.93;;;;;;;7.68;42.84;94833.22;5048082;28;20024;-78
2024/02/07 04:05:02;;;;;;;7.95;4.15;;;;;;;7.66;42.99;94830.13;5047577;28;20587;-77
2024/02/07 04:07:28;;;;;;;8.48;4.75;;;;;;;7.63;42.94;94822.00;5046431;28;20025;-77
2024/02/07 04:09:53;;;;;;;9.75;4.40;;;;;;;7.59;42.88;94821.28;5046187;28;20036;-78
2024/02/07 05:17:20;;;;;;;4.40;3.20;;;;;;;8.24;46.88;94802.34;5046763;28;20025;-79
2024/02/07 05:19:49;;;;;;;7.00;3.67;;;;;;;8.34;46.99;94795.84;5028044;28;20036;-77
2024/02/07 05:22:16;;;;;;;6.95;3.60;;;;;;;8.43;46.79;94795.28;5044875;28;20060;-77
2024/02/07 05:24:42;;;;;;;6.25;3.67;;;;;;;8.50;46.69;94800.63;5045237;28;20021;-77
2024/02/07 05:27:12;;;;;;;6.30;3.38;;;;;;;8.53;46.39;94799.75;5044854;28;20048;-77
2024/02/07 05:29:40;;;;;;;6.80;3.75;;;;;;;8.65;46.31;94807.31;5046294;28;20029;-76
2024/02/07 05:32:07;;;;;;;6.88;3.75;;;;;;;8.76;46.03;94810.56;5044437;28;20024;-78
2024/02/07 05:34:33;;;;;;;6.18;4.03;;;;;;;8.80;45.70;94815.19;5028500;28;20021;-77
2024/02/07 05:36:59;;;;;;;5.65;3.47;;;;;;;8.75;45.92;94811.75;5044999;28;20020;-77
2024/02/07 05:39:26;;;;;;;7.72;4.30;;;;;;;8.80;45.67;94812.47;5044787;28;20043;-77
2024/02/07 05:41:51;;;;;;;6.95;3.72;;;;;;;8.92;45.36;94823.50;5046192;28;20067;-79
2024/02/07 05:44:17;;;;;;;7.22;4.28;;;;;;;8.97;45.30;94812.03;5044103;28;20424;-78
2024/02/07 05:46:42;;;;;;;7.97;3.60;;;;;;;8.95;45.32;94819.91;5044804;28;20017;-77
2024/02/07 05:49:08;;;;;;;7.20;3.47;;;;;;;8.98;45.37;94807.31;5045513;28;20049;-78
2024/02/07 05:51:34;;;;;;;7.55;3.80;;;;;;;8.98;45.67;94805.34;5044306;28;20096;-77
2024/02/07 05:53:59;;;;;;;6.85;4.03;;;;;;;9.11;45.15;94805.41;5044808;28;20032;-78
2024/02/07 05:56:25;;;;;;;6.75;4.72;;;;;;;9.11;45.21;94805.41;5044378;28;20028;-77
2024/02/07 05:58:51;;;;;;;10.02;4.45;;;;;;;9.29;45.06;94813.22;5044363;28;20024;-78
2024/02/07 06:01:21;;;;;;;6.78;3.97;;;;;;;9.29;44.90;94819.47;5044195;28;20032;-76
2024/02/07 06:03:50;;;;;;;8.15;4.18;;;;;;;9.24;44.82;94821.97;5044532;28;20044;-78
2024/02/07 06:06:24;;;;;;;12.27;6.22;;;;;;;9.19;45.05;94817.75;5027870;28;20455;-80
2024/02/07 06:08:51;;;;;;;21.15;11.10;;;;;;;9.12;44.67;94814.41;5044375;28;20055;-80
2024/02/07 06:11:17;;;;;;;27.38;12.73;;;;;;;9.02;44.72;94813.47;5044476;28;20025;-78
2024/02/07 06:13:42;;;;;;;17.67;10.63;;;;;;;9.09;44.40;94821.53;5044433;28;20025;-79
2024/02/07 06:16:07;;;;;;;23.63;11.85;;;;;;;8.97;44.32;94814.00;5044105;28;20100;-79
2024/02/07 06:18:35;;;;;;;27.60;12.10;;;;;;;9.00;43.79;94827.63;5044307;28;20021;-79
2024/02/07 06:21:01;;;;;;;22.20;12.48;;;;;;;8.91;43.53;94824.72;5044229;28;20098;-80
2024/02/07 06:23:26;;;;;;;26.08;13.00;;;;;;;8.85;43.29;94820.19;5043892;28;20025;-79
2024/02/07 06:25:52;;;;;;;21.40;12.85;;;;;;;8.75;43.86;94822.72;5044322;28;20120;-78
2024/02/07 06:28:17;;;;;;;22.52;12.63;;;;;;;8.66;43.75;94828.03;5044761;28;20025;-79
2024/02/07 06:30:43;;;;;;;28.83;12.73;;;;;;;8.58;43.68;94823.91;5045356;28;20025;-79
2024/02/07 06:33:09;;;;;;;26.88;13.85;;;;;;;8.52;44.21;94831.88;5043662;28;20120;-79
2024/02/07 06:35:34;;;;;;;26.55;13.20;;;;;;;8.43;44.25;94836.38;5045370;28;20074;-80
2024/02/07 06:38:00;;;;;;;26.33;13.85;;;;;;;8.37;44.39;94838.06;5045291;28;20021;-80
2024/02/07 06:40:27;;;;;;;28.67;14.48;;;;;;;8.36;44.26;94839.28;5043755;28;20029;-78
2024/02/07 06:42:53;;;;;;;27.83;15.55;;;;;;;8.33;44.57;94829.16;5043862;28;20474;-78
2024/02/07 06:45:18;;;;;;;29.35;14.90;;;;;;;8.35;44.39;94841.22;5026466;28;20082;-79
2024/02/07 06:47:44;;;;;;;24.88;14.27;;;;;;;8.29;44.62;94840.19;5043992;28;20029;-79
2024/02/07 06:50:09;;;;;;;27.70;15.50;;;;;;;8.28;44.58;94832.41;5044566;28;20040;-78
2024/02/07 06:52:34;;;;;;;29.73;16.08;;;;;;;8.28;44.73;94837.88;5045280;28;20021;-79
2024/02/07 06:55:00;;;;;;;26.60;15.60;;;;;;;8.29;44.79;94839.41;5045148;28;20029;-78
2024/02/07 06:57:26;;;;;;;26.48;14.68;;;;;;;8.30;44.91;94836.25;5043671;28;20162;-89
2024/02/07 06:59:52;;;;;;;29.33;16.02;;;;;;;8.30;44.84;94830.00;5043362;28;20043;-79
2024/02/07 07:02:17;;;;;;;29.58;15.25;;;;;;;8.28;45.06;94826.91;5045493;28;20024;-77
2024/02/07 07:04:43;;;;;;;32.08;17.38;;;;;;;8.36;45.12;94833.81;5047775;28;20028;-74
2024/02/07 07:07:08;;;;;;;29.85;17.77;;;;;;;8.43;44.74;94830.91;5047158;28;20234;-76
2024/02/07 07:09:33;;;;;;;34.75;17.63;;;;;;;8.54;44.72;94828.69;5049136;28;20112;-82
2024/02/07 07:11:59;;;;;;;32.80;16.13;;;;;;;8.54;45.03;94828.69;5048083;28;20036;-81
2024/02/07 07:14:25;;;;;;;30.67;16.58;;;;;;;8.54;44.70;94827.94;5031327;28;20125;-85
2024/02/07 07:16:51;;;;;;;32.65;17.90;;;;;;;8.57;44.97;94824.34;5049524;28;20028;-82
2024/02/07 07:19:16;;;;;;;30.02;16.77;;;;;;;8.60;45.16;94829.75;5048784;28;20526;-80
2024/02/07 07:21:41;;;;;;;30.98;17.00;;;;;;;8.65;45.21;94822.97;5047549;28;20025;-81
2024/02/07 07:24:07;;;;;;;30.80;16.33;;;;;;;8.73;45.11;94829.84;5047150;28;20025;-80
2024/02/07 07:26:33;;;;;;;33.72;17.25;;;;;;;8.82;44.89;94831.97;5047319;28;20029;-79
2024/02/07 07:28:58;;;;;;;40.53;18.00;;;;;;;8.94;44.79;94829.31;5047109;28;20036;-84
2024/02/07 07:31:25;;;;;;;29.20;16.17;;;;;;;8.97;44.79;94833.19;5032090;28;20024;-85
2024/02/07 07:33:50;;;;;;;32.28;17.00;;;;;;;9.08;44.76;94838.41;5048783;28;20052;-83
2024/02/07 07:36:17;;;;;;;30.02;15.90;;;;;;;9.24;45.20;94833.69;5030903;28;20122;-82
2024/02/07 07:38:42;;;;;;;39.67;19.83;;;;;;;9.38;44.89;94837.28;5047102;28;20055;-81
2024/02/07 07:41:07;;;;;;;25.20;13.85;;;;;;;9.51;44.85;94832.59;5030640;28;20017;-83
2024/02/07 07:43:34;;;;;;;27.85;13.40;;;;;;;9.66;45.13;94822.03;5030358;28;20025;-83
2024/02/07 07:45:59;;;;;;;19.25;11.25;;;;;;;9.93;44.91;94827.94;5046930;28;20067;-82
2024/02/07 07:48:25;;;;;;;16.73;9.05;;;;;;;10.10;44.51;94810.19;5030396;28;20056;-83
2024/02/07 07:50:51;;;;;;;19.40;10.15;;;;;;;10.27;43.85;94810.16;5013962;28;20484;-82
2024/02/07 07:53:16;;;;;;;20.08;8.60;;;;;;;10.45;43.60;94809.59;5029965;28;20051;-82
2024/02/07 07:55:41;;;;;;;14.70;8.43;;;;;;;10.60;43.32;94802.44;5047097;28;20029;-83
2024/02/07 07:58:07;;;;;;;13.93;6.93;;;;;;;10.75;43.17;94806.31;5030339;28;20125;-78
2024/02/07 08:00:34;;;;;;;10.23;5.07;;;;;;;10.95;43.28;94797.78;5046547;28;20036;-79
2024/02/07 08:02:59;;;;;;;9.20;4.32;;;;;;;11.16;43.05;94804.59;5046381;28;20163;-79
2024/02/07 08:05:24;;;;;;;5.68;3.20;;;;;;;11.35;42.60;94797.25;5046586;28;20579;-81
2024/02/07 08:07:50;;;;;;;6.50;3.20;;;;;;;11.52;42.56;94795.13;5047787;28;20036;-78
2024/02/07 08:10:15;;;;;;;10.18;4.10;;;;;;;11.69;42.13;94793.72;5047538;28;20471;-79
2024/02/07 08:12:41;;;;;;;7.07;3.42;;;;;;;11.93;41.73;94796.88;5047362;28;20032;-79
2024/02/07 08:15:06;;;;;;;7.95;3.80;;;;;;;12.14;41.27;94795.28;5046448;28;20032;-78
2024/02/07 08:17:32;;;;;;;6.45;3.75;;;;;;;12.26;40.92;94793.66;5046161;28;20021;-79
2024/02/07 08:19:57;;;;;;;6.93;3.47;;;;;;;12.57;40.68;94796.44;5047584;28;21193;-78
2024/02/07 08:22:22;;;;;;;6.30;3.65;;;;;;;12.99;39.96;94778.19;5046225;28;20017;-78
2024/02/07 08:24:48;;;;;;;9.07;3.80;;;;;;;13.51;39.22;94784.72;5047196;28;20059;-79
2024/02/07 08:27:13;;;;;;;7.63;3.83;;;;;;;14.16;38.29;94782.69;5047388;28;20114;-78
2024/02/07 08:29:39;;;;;;;8.20;4.00;;;;;;;14.74;37.01;94773.34;5047560;28;20048;-79
2024/02/07 08:32:04;;;;;;;6.75;3.97;;;;;;;15.76;35.71;94776.25;5047750;28;20404;-77
2024/02/07 08:34:30;;;;;;;6.38;3.47;;;;;;;16.82;34.06;94778.13;5029081;28;20410;-78
2024/02/07 08:36:55;;;;;;;6.78;3.17;;;;;;;17.61;32.58;94779.22;5046063;28;20021;-78
2024/02/07 08:39:21;;;;;;;8.30;3.30;;;;;;;18.10;31.76;94766.38;5045743;28;20025;-78
2024/02/07 08:41:46;;;;;;;6.10;3.42;;;;;;;18.81;30.99;94768.31;5028956;28;20040;-78
2024/02/07 08:44:12;;;;;;;8.70;3.95;;;;;;;19.46;29.70;94767.72;5045686;28;20098;-79
2024/02/07 08:46:37;;;;;;;7.47;3.85;;;;;;;19.75;29.55;94763.81;5045489;28;20410;-79
2024/02/07 08:49:04;;;;;;;5.78;3.13;;;;;;;19.96;28.91;94760.84;5046956;28;20032;-78
2024/02/07 08:51:29;;;;;;;9.80;4.53;;;;;;;20.17;28.97;94774.06;5028863;28;20128;-80
2024/02/07 08:53:54;;;;;;;7.50;3.97;;;;;;;20.50;28.39;94769.84;5047289;28;20025;-79
2024/02/07 08:56:20;;;;;;;10.35;3.72;;;;;;;20.67;27.68;94764.28;5045465;28;20481;-78
2024/02/07 08:58:45;;;;;;;7.63;3.47;;;;;;;21.09;27.31;94768.06;5045172;28;20029;-78
2024/02/07 09:01:13;;;;;;;8.85;4.07;;;;;;;21.21;26.81;94761.94;5029058;28;20021;-80
2024/02/07 09:03:39;;;;;;;6.18;3.13;;;;;;;21.31;26.41;94768.03;5045231;28;20498;-80
2024/02/07 09:06:04;;;;;;;6.03;3.30;;;;;;;21.24;26.57;94765.00;5045496;28;20122;-78
2024/02/07 09:08:30;;;;;;;8.25;3.80;;;;;;;21.18;26.72;94753.81;5046650;28;20033;-80
2024/02/07 09:10:57;;;;;;;8.32;3.38;;;;;;;20.89;27.09;94749.53;5028898;28;20108;-79
2024/02/07 09:13:23;;;;;;;7.32;3.30;;;;;;;20.33;27.69;94741.13;5045258;28;20021;-80
2024/02/07 09:15:48;;;;;;;8.63;3.67;;;;;;;20.17;27.56;94732.22;5046764;28;20028;-78
2024/02/07 09:18:13;;;;;;;5.28;2.83;;;;;;;20.48;27.37;94738.13;5045237;28;20096;-78
2024/02/07 09:20:39;;;;;;;7.30;3.05;;;;;;;20.79;26.92;94749.03;5046291;28;20083;-78
2024/02/07 09:23:04;;;;;;;5.68;3.00;;;;;;;20.94;26.86;94746.00;5045348;28;20108;-78
2024/02/07 09:25:30;;;;;;;8.02;3.30;;;;;;;20.84;27.15;94733.53;5044029;28;20036;-79
2024/02/07 09:27:57;;;;;;;6.28;2.72;;;;;;;21.53;26.37;94735.72;5046448;28;20506;-79
2024/02/07 09:30:22;;;;;;;10.30;3.00;;;;;;;21.98;25.74;94739.06;5046365;28;20408;-78
2024/02/07 09:32:48;;;;;;;9.98;3.53;;;;;;;22.34;25.38;94727.94;5028342;28;20024;-80
2024/02/07 09:35:13;;;;;;;5.43;3.50;;;;;;;22.11;25.26;94719.69;5046172;28;20454;-78
2024/02/07 09:37:39;;;;;;;11.40;3.17;;;;;;;22.23;25.50;94712.72;5045874;28;20025;-80
2024/02/07 09:40:05;;;;;;;6.40;2.95;;;;;;;22.27;25.28;94715.25;5044911;28;20037;-79
2024/02/07 09:42:33;;;;;;;10.35;3.20;;;;;;;22.33;25.47;94713.19;5045695;28;20495;-79
2024/02/07 09:44:59;;;;;;;7.85;3.05;;;;;;;22.50;25.12;94701.84;5044472;28;20036;-79
2024/02/07 09:47:25;;;;;;;7.38;3.40;;;;;;;22.75;25.12;94695.00;5044799;28;20049;-78
2024/02/07 09:49:51;;;;;;;8.18;3.80;;;;;;;22.92;24.69;94688.53;5044424;28;20049;-79
2024/02/07 09:52:17;;;;;;;8.85;3.75;;;;;;;22.98;24.53;94686.44;5044419;28;20033;-78
2024/02/07 09:54:46;;;;;;;6.10;2.97;;;;;;;23.04;24.49;94684.31;5046295;28;20024;-78
2024/02/07 09:57:12;;;;;;;6.60;3.38;;;;;;;22.95;24.72;94671.44;5044948;28;20021;-79
2024/02/07 09:59:38;;;;;;;7.47;2.67;;;;;;;23.13;24.10;94667.16;5043938;28;20086;-78
2024/02/07 10:02:04;;;;;;;7.15;3.63;;;;;;;23.49;23.53;94667.75;5044995;28;20072;-79
2024/02/07 10:04:34;;;;;;;7.90;3.60;;;;;;;23.83;22.67;94667.34;5044138;28;20431;-78
2024/02/07 10:07:00;;;;;;;6.38;2.42;;;;;;;23.50;22.53;94666.47;5044449;28;20106;-79
2024/02/07 10:09:28;;;;;;;8.23;2.80;;;;;;;23.59;22.30;94656.94;5043957;28;20448;-79
2024/02/07 10:11:54;;;;;;;5.60;2.85;;;;;;;23.78;22.59;94657.72;5044643;28;20029;-79
2024/02/07 10:14:19;;;;;;;5.32;3.00;;;;;;;23.99;22.11;94652.34;5043996;28;20496;-79
2024/02/07 10:16:45;;;;;;;8.50;3.60;;;;;;;23.31;22.78;94637.63;5044169;28;20032;-78
2024/02/07 10:19:11;;;;;;;6.40;3.22;;;;;;;22.83;23.29;94632.81;5045885;28;20120;-77
2024/02/07 10:21:37;;;;;;;6.80;3.40;;;;;;;22.52;24.08;94635.63;5043831;28;20028;-78
2024/02/07 10:24:03;;;;;;;9.68;3.00;;;;;;;22.08;24.95;94627.56;5044314;28;20025;-78
2024/02/07 10:26:30;;;;;;;7.90;2.90;;;;;;;22.51;24.47;94624.94;5043796;28;20021;-79
2024/02/07 10:29:04;;;;;;;5.82;3.03;;;;;;;22.67;24.62;94615.63;5044542;28;20082;-78
2024/02/07 10:31:30;;;;;;;6.15;3.20;;;;;;;22.61;24.87;94619.78;5043715;28;20025;-78
2024/02/07 10:33:58;;;;;;;6.93;2.90;;;;;;;22.13;25.00;94605.16;5043774;28;20032;-77
2024/02/07 10:36:23;;;;;;;6.47;3.47;;;;;;;21.83;25.61;94615.53;5027563;28;20021;-78
2024/02/07 10:38:49;;;;;;;6.50;3.45;;;;;;;22.01;25.09;94601.66;5027112;28;20095;-78
2024/02/07 10:41:14;;;;;;;8.18;3.20;;;;;;;21.86;25.38;94590.06;5044041;28;20115;-78
2024/02/07 10:43:41;;;;;;;6.22;3.20;;;;;;;22.63;24.45;94600.41;5044768;28;20515;-78
2024/02/07 10:46:10;;;;;;;6.30;2.88;;;;;;;23.27;23.69;94595.88;5027206;28;20059;-78
2024/02/07 10:48:36;;;;;;;9.43;3.13;;;;;;;23.61;23.56;94597.47;5043631;28;20041;-78
2024/02/07 10:51:02;;;;;;;5.82;3.08;;;;;;;23.73;22.94;94596.06;5043663;28;20063;-79
2024/02/07 10:53:29;;;;;;;6.00;3.20;;;;;;;23.65;23.20;94579.09;5044236;28;20021;-78
2024/02/07 10:55:55;;;;;;;10.18;3.50;;;;;;;23.88;22.99;94585.13;5044953;28;20120;-77
2024/02/07 10:58:22;;;;;;;7.68;3.22;;;;;;;24.42;22.27;94583.25;5043740;28;20265;-79
2024/02/07 11:00:51;;;;;;;10.45;3.15;;;;;;;24.63;21.90;94579.31;5043693;28;20033;-79
2024/02/07 11:03:18;;;;;;;5.65;3.10;;;;;;;25.20;21.38;94578.28;5043905;28;20026;-78
2024/02/07 11:05:43;;;;;;;6.13;2.97;;;;;;;25.98;20.49;94573.00;5043767;28;20024;-79
2024/02/07 11:08:09;;;;;;;8.50;3.90;;;;;;;26.89;19.42;94556.13;5043868;28;20071;-78
2024/02/07 11:10:35;;;;;;;7.13;3.03;;;;;;;27.68;18.42;94557.47;5043452;28;20428;-78
2024/02/07 11:13:01;;;;;;;9.13;3.20;;;;;;;28.58;17.58;94561.81;5043419;28;20115;-77
2024/02/07 11:15:26;;;;;;;8.18;3.47;;;;;;;29.07;16.85;94554.97;5044869;28;20108;-78
2024/02/07 11:17:52;;;;;;;10.77;3.35;;;;;;;29.66;16.49;94553.13;5043614;28;20091;-78
2024/02/07 11:20:17;;;;;;;5.97;3.17;;;;;;;29.76;16.45;94554.75;5045189;28;20028;-79
2024/02/07 11:22:47;;;;;;;8.98;3.75;;;;;;;30.31;15.75;94547.47;5043390;28;20104;-78
2024/02/07 11:25:15;;;;;;;5.13;2.55;;;;;;;31.14;14.75;94550.91;5043839;28;20029;-77
2024/02/07 11:27:41;;;;;;;4.95;2.40;;;;;;;30.61;14.83;94537.97;5043479;28;20025;-77
2024/02/07 11:30:08;;;;;;;8.70;3.08;;;;;;;30.04;15.42;94544.41;5042955;28;20477;-78
2024/02/07 11:32:35;;;;;;;8.80;2.78;;;;;;;30.72;14.56;94540.34;5043419;28;20487;-77
2024/02/07 11:35:01;;;;;;;4.43;2.72;;;;;;;30.74;14.96;94539.78;5026597;28;20033;-78
2024/02/07 11:37:32;;;;;;;11.50;3.63;;;;;;;31.18;14.74;94523.63;5044580;28;20090;-77
2024/02/07 11:40:03;;;;;;;7.38;3.08;;;;;;;32.17;13.78;94527.34;5043339;28;20024;-78
2024/02/07 11:42:35;;;;;;;6.85;2.85;;;;;;;32.16;13.80;94522.22;5043047;28;20018;-78
2024/02/07 11:45:03;;;;;;;6.13;2.70;;;;;;;32.97;12.79;94520.00;5043037;28;20036;-76
2024/02/07 11:47:32;;;;;;;6.65;3.00;;;;;;;33.54;12.65;94520.63;5043137;28;20064;-78
2024/02/07 11:50:00;;;;;;;7.30;3.05;;;;;;;33.75;11.97;94515.06;5046335;28;20049;-78
2024/02/07 11:52:29;;;;;;;8.90;3.80;;;;;;;34.39;11.18;94505.31;5048096;28;20036;-78
2024/02/07 11:55:07;;;;;;;5.97;3.95;;;;;;;35.06;10.25;94504.25;5047007;28;20021;-78
2024/02/07 11:57:33;;;;;;;9.23;3.80;;;;;;;34.15;10.55;94507.19;5046537;28;20040;-78
2024/02/07 12:00:05;;;;;;;7.00;3.95;;;;;;;34.13;10.12;94501.38;5029992;28;20629;-78
2024/02/07 12:02:31;;;;;;;9.18;4.43;;;;;;;34.24;10.26;94489.31;5046857;28;20029;-78
2024/02/07 12:04:57;;;;;;;8.90;4.95;;;;;;;32.05;11.62;94474.44;5047774;28;20029;-77
2024/02/07 12:07:23;;;;;;;9.20;6.03;;;;;;;29.34;13.31;94469.63;5047769;28;20035;-77
2024/02/07 12:09:48;;;;;;;6.13;3.22;;;;;;;28.11;14.21;94463.44;5029828;28;20025;-78
2024/02/07 12:12:15;;;;;;;11.38;4.78;;;;;;;27.30;15.31;94452.91;5047883;28;20033;-77
2024/02/07 12:14:41;;;;;;;8.43;4.60;;;;;;;26.67;15.52;94453.19;5047648;28;20460;-77
2024/02/07 12:17:07;;;;;;;7.00;4.15;;;;;;;26.27;16.01;94458.34;5046495;28;20445;-78
2024/02/07 12:19:36;;;;;;;5.38;3.65;;;;;;;25.67;16.46;94451.63;5046143;28;20070;-79
2024/02/07 12:22:02;;;;;;;5.75;3.83;;;;;;;25.20;17.09;94446.84;5029317;28;20032;-79
2024/02/07 12:24:29;;;;;;;4.30;3.05;;;;;;;24.77;17.50;94447.97;5046080;28;20125;-77
2024/02/07 12:27:06;;;;;;;5.88;2.95;;;;;;;24.04;17.57;94446.56;5046171;28;20456;-78
2024/02/07 12:29:31;;;;;;;4.45;2.45;;;;;;;23.61;18.08;94448.78;5045817;28;20033;-78
2024/02/07 12:32:00;;;;;;;4.88;3.00;;;;;;;23.16;18.77;94438.25;5047420;28;20200;-78
2024/02/07 12:34:25;;;;;;;5.88;2.75;;;;;;;22.72;18.95;94448.75;5045900;28;20021;-78
2024/02/07 12:36:53;;;;;;;6.03;3.53;;;;;;;22.54;19.21;94441.84;5029436;28;20337;-78